Nore, Minnesota
Current Conditions -  °F | °C
As of 8:13 PM on Friday 28 Nov 2014 (Local Time) from KFOZ Reporting Station
Overcast Overcast  
Wind Chill:   Ceiling: 4400
Heat Index: 18°   Visibility: 10mi
Dew Point: 12°   Wind: 6mph
Humidity: 79%   Direction: 150°SSE
Pressure: 29.73"   Gusts: 9mph
Location:  47.8312°N, 94.1459°W
Report Text: KFOZ 290213Z AUTO 15005G08KT 10SM SCT034 OVC044 M08/M11 A2973 RMK AO2 TSNO
Loading
Personal Weather Stations






























Interactive Weather Map New forecast layout! Learn more

10-Day Weather Forecast

Advertisements
Track Severe Weather on mobile